sensor_id;sensor_type;location;lat;lon;timestamp;P1;durP1;ratioP1;P2;durP2;ratioP2
6203;SDS011;3135;42.602;23.468;2022-07-12T00:00:54;1.63;;;1.50;;
6203;SDS011;3135;42.602;23.468;2022-07-12T00:03:19;2.10;;;1.50;;
6203;SDS011;3135;42.602;23.468;2022-07-12T00:05:44;1.60;;;1.50;;
6203;SDS011;3135;42.602;23.468;2022-07-12T00:08:10;1.90;;;1.50;;
6203;SDS011;3135;42.602;23.468;2022-07-12T00:10:35;1.40;;;1.30;;
6203;SDS011;3135;42.602;23.468;2022-07-12T00:13:02;1.60;;;1.50;;
6203;SDS011;3135;42.602;23.468;2022-07-12T00:15:28;1.70;;;1.30;;
6203;SDS011;3135;42.602;23.468;2022-07-12T00:17:53;1.45;;;1.30;;
6203;SDS011;3135;42.602;23.468;2022-07-12T00:20:19;2.78;;;1.10;;
6203;SDS011;3135;42.602;23.468;2022-07-12T00:22:44;1.43;;;1.30;;
6203;SDS011;3135;42.602;23.468;2022-07-12T00:25:11;1.30;;;1.30;;
6203;SDS011;3135;42.602;23.468;2022-07-12T00:27:37;2.28;;;1.38;;
6203;SDS011;3135;42.602;23.468;2022-07-12T00:30:03;1.60;;;1.20;;
6203;SDS011;3135;42.602;23.468;2022-07-12T00:32:30;2.00;;;1.40;;
6203;SDS011;3135;42.602;23.468;2022-07-12T00:34:56;1.70;;;1.13;;
6203;SDS011;3135;42.602;23.468;2022-07-12T00:37:21;1.60;;;1.30;;
6203;SDS011;3135;42.602;23.468;2022-07-12T00:39:47;1.50;;;1.40;;
6203;SDS011;3135;42.602;23.468;2022-07-12T00:42:13;2.35;;;1.20;;
6203;SDS011;3135;42.602;23.468;2022-07-12T00:44:39;3.97;;;1.10;;
6203;SDS011;3135;42.602;23.468;2022-07-12T00:47:05;1.58;;;1.10;;
6203;SDS011;3135;42.602;23.468;2022-07-12T00:49:30;1.37;;;1.20;;
6203;SDS011;3135;42.602;23.468;2022-07-12T00:51:58;1.30;;;1.10;;
6203;SDS011;3135;42.602;23.468;2022-07-12T00:54:23;1.23;;;1.03;;
6203;SDS011;3135;42.602;23.468;2022-07-12T00:56:49;1.30;;;1.00;;
6203;SDS011;3135;42.602;23.468;2022-07-12T00:59:14;1.30;;;1.20;;
6203;SDS011;3135;42.602;23.468;2022-07-12T01:01:40;1.00;;;1.00;;
6203;SDS011;3135;42.602;23.468;2022-07-12T01:04:06;3.10;;;1.02;;
6203;SDS011;3135;42.602;23.468;2022-07-12T01:06:33;2.15;;;1.20;;
6203;SDS011;3135;42.602;23.468;2022-07-12T01:08:59;1.03;;;1.03;;
6203;SDS011;3135;42.602;23.468;2022-07-12T01:11:25;1.97;;;1.03;;
6203;SDS011;3135;42.602;23.468;2022-07-12T01:13:51;1.17;;;1.02;;
6203;SDS011;3135;42.602;23.468;2022-07-12T01:16:18;1.20;;;1.10;;
6203;SDS011;3135;42.602;23.468;2022-07-12T01:18:44;4.28;;;1.20;;
6203;SDS011;3135;42.602;23.468;2022-07-12T01:21:11;1.60;;;1.10;;
6203;SDS011;3135;42.602;23.468;2022-07-12T01:23:40;1.10;;;1.00;;
6203;SDS011;3135;42.602;23.468;2022-07-12T01:26:06;1.02;;;1.02;;
6203;SDS011;3135;42.602;23.468;2022-07-12T01:28:32;1.90;;;1.03;;
6203;SDS011;3135;42.602;23.468;2022-07-12T01:30:59;1.50;;;0.90;;
6203;SDS011;3135;42.602;23.468;2022-07-12T01:33:25;2.58;;;1.10;;
6203;SDS011;3135;42.602;23.468;2022-07-12T01:35:51;1.38;;;1.00;;
6203;SDS011;3135;42.602;23.468;2022-07-12T01:38:17;1.38;;;1.05;;
6203;SDS011;3135;42.602;23.468;2022-07-12T01:40:42;1.70;;;0.90;;
6203;SDS011;3135;42.602;23.468;2022-07-12T01:43:08;1.03;;;0.90;;
6203;SDS011;3135;42.602;23.468;2022-07-12T01:45:33;2.43;;;1.03;;
6203;SDS011;3135;42.602;23.468;2022-07-12T01:47:59;3.13;;;0.90;;
6203;SDS011;3135;42.602;23.468;2022-07-12T01:50:24;1.40;;;1.00;;
6203;SDS011;3135;42.602;23.468;2022-07-12T01:52:50;1.88;;;1.30;;
6203;SDS011;3135;42.602;23.468;2022-07-12T01:55:17;1.00;;;1.00;;
6203;SDS011;3135;42.602;23.468;2022-07-12T01:57:43;1.90;;;1.00;;
6203;SDS011;3135;42.602;23.468;2022-07-12T02:00:10;2.50;;;1.00;;
6203;SDS011;3135;42.602;23.468;2022-07-12T02:02:36;1.15;;;1.00;;
6203;SDS011;3135;42.602;23.468;2022-07-12T02:05:03;1.10;;;1.00;;
6203;SDS011;3135;42.602;23.468;2022-07-12T02:07:30;1.10;;;1.00;;
6203;SDS011;3135;42.602;23.468;2022-07-12T02:09:56;1.30;;;1.00;;
6203;SDS011;3135;42.602;23.468;2022-07-12T02:12:22;1.70;;;1.20;;
6203;SDS011;3135;42.602;23.468;2022-07-12T02:14:48;1.08;;;0.98;;
6203;SDS011;3135;42.602;23.468;2022-07-12T02:17:15;2.05;;;0.90;;
6203;SDS011;3135;42.602;23.468;2022-07-12T02:19:42;2.70;;;1.00;;
6203;SDS011;3135;42.602;23.468;2022-07-12T02:22:08;1.00;;;0.90;;
6203;SDS011;3135;42.602;23.468;2022-07-12T02:24:33;2.20;;;1.05;;
6203;SDS011;3135;42.602;23.468;2022-07-12T02:26:59;1.88;;;1.20;;
6203;SDS011;3135;42.602;23.468;2022-07-12T02:29:24;1.70;;;1.20;;
6203;SDS011;3135;42.602;23.468;2022-07-12T02:31:49;1.10;;;1.00;;
6203;SDS011;3135;42.602;23.468;2022-07-12T02:34:15;1.50;;;1.00;;
6203;SDS011;3135;42.602;23.468;2022-07-12T02:36:41;1.10;;;1.00;;
6203;SDS011;3135;42.602;23.468;2022-07-12T02:39:06;1.58;;;1.10;;
6203;SDS011;3135;42.602;23.468;2022-07-12T02:41:32;2.30;;;1.00;;
6203;SDS011;3135;42.602;23.468;2022-07-12T02:43:58;1.60;;;0.90;;
6203;SDS011;3135;42.602;23.468;2022-07-12T02:46:24;1.90;;;1.00;;
6203;SDS011;3135;42.602;23.468;2022-07-12T02:48:50;0.83;;;0.83;;
6203;SDS011;3135;42.602;23.468;2022-07-12T02:51:17;3.38;;;1.05;;
6203;SDS011;3135;42.602;23.468;2022-07-12T02:53:42;1.20;;;1.10;;
6203;SDS011;3135;42.602;23.468;2022-07-12T02:56:08;2.10;;;1.27;;
6203;SDS011;3135;42.602;23.468;2022-07-12T02:58:34;1.50;;;1.20;;
6203;SDS011;3135;42.602;23.468;2022-07-12T03:01:00;1.50;;;1.10;;
6203;SDS011;3135;42.602;23.468;2022-07-12T03:03:25;1.17;;;1.08;;
6203;SDS011;3135;42.602;23.468;2022-07-12T03:05:51;2.63;;;1.00;;
6203;SDS011;3135;42.602;23.468;2022-07-12T03:08:16;1.70;;;1.10;;
6203;SDS011;3135;42.602;23.468;2022-07-12T03:10:42;2.42;;;1.20;;
6203;SDS011;3135;42.602;23.468;2022-07-12T03:13:07;5.90;;;1.40;;
6203;SDS011;3135;42.602;23.468;2022-07-12T03:15:33;1.00;;;1.00;;
6203;SDS011;3135;42.602;23.468;2022-07-12T03:17:59;1.65;;;1.13;;
6203;SDS011;3135;42.602;23.468;2022-07-12T03:20:26;3.57;;;1.33;;
6203;SDS011;3135;42.602;23.468;2022-07-12T03:22:51;4.83;;;1.27;;
6203;SDS011;3135;42.602;23.468;2022-07-12T03:25:19;1.58;;;1.27;;
6203;SDS011;3135;42.602;23.468;2022-07-12T03:27:46;1.20;;;1.10;;
6203;SDS011;3135;42.602;23.468;2022-07-12T03:30:12;1.38;;;1.10;;
6203;SDS011;3135;42.602;23.468;2022-07-12T03:32:38;2.00;;;1.20;;
6203;SDS011;3135;42.602;23.468;2022-07-12T03:35:04;5.38;;;1.80;;
6203;SDS011;3135;42.602;23.468;2022-07-12T03:37:46;3.40;;;1.80;;
6203;SDS011;3135;42.602;23.468;2022-07-12T03:40:16;2.43;;;1.90;;
6203;SDS011;3135;42.602;23.468;2022-07-12T03:42:43;3.22;;;2.10;;
6203;SDS011;3135;42.602;23.468;2022-07-12T03:45:09;2.80;;;2.20;;
6203;SDS011;3135;42.602;23.468;2022-07-12T03:47:36;5.22;;;2.55;;
6203;SDS011;3135;42.602;23.468;2022-07-12T03:50:03;3.30;;;3.00;;
6203;SDS011;3135;42.602;23.468;2022-07-12T03:52:30;3.00;;;2.80;;
6203;SDS011;3135;42.602;23.468;2022-07-12T03:54:56;5.50;;;2.78;;
6203;SDS011;3135;42.602;23.468;2022-07-12T03:57:22;3.20;;;2.90;;
6203;SDS011;3135;42.602;23.468;2022-07-12T03:59:49;3.23;;;2.33;;
6203;SDS011;3135;42.602;23.468;2022-07-12T04:02:14;3.33;;;3.03;;
6203;SDS011;3135;42.602;23.468;2022-07-12T04:04:40;3.40;;;3.08;;
6203;SDS011;3135;42.602;23.468;2022-07-12T04:07:06;3.35;;;3.03;;
6203;SDS011;3135;42.602;23.468;2022-07-12T04:09:32;3.13;;;2.93;;
6203;SDS011;3135;42.602;23.468;2022-07-12T04:11:57;2.70;;;2.50;;
6203;SDS011;3135;42.602;23.468;2022-07-12T04:14:23;5.25;;;3.30;;
6203;SDS011;3135;42.602;23.468;2022-07-12T04:16:48;4.47;;;3.03;;
6203;SDS011;3135;42.602;23.468;2022-07-12T04:19:14;2.78;;;2.58;;
6203;SDS011;3135;42.602;23.468;2022-07-12T04:21:39;2.70;;;2.50;;
6203;SDS011;3135;42.602;23.468;2022-07-12T04:24:04;3.20;;;2.50;;
6203;SDS011;3135;42.602;23.468;2022-07-12T04:26:31;4.05;;;2.60;;
6203;SDS011;3135;42.602;23.468;2022-07-12T04:28:56;3.92;;;2.70;;
6203;SDS011;3135;42.602;23.468;2022-07-12T04:31:22;2.40;;;2.20;;
6203;SDS011;3135;42.602;23.468;2022-07-12T04:33:48;2.65;;;2.45;;
6203;SDS011;3135;42.602;23.468;2022-07-12T04:36:14;3.60;;;2.77;;
6203;SDS011;3135;42.602;23.468;2022-07-12T04:38:39;3.90;;;2.50;;
6203;SDS011;3135;42.602;23.468;2022-07-12T04:41:05;5.65;;;2.97;;
6203;SDS011;3135;42.602;23.468;2022-07-12T04:43:30;3.00;;;2.80;;
6203;SDS011;3135;42.602;23.468;2022-07-12T04:45:56;2.80;;;2.60;;
6203;SDS011;3135;42.602;23.468;2022-07-12T04:48:29;3.03;;;2.72;;
6203;SDS011;3135;42.602;23.468;2022-07-12T04:50:55;3.13;;;2.80;;
6203;SDS011;3135;42.602;23.468;2022-07-12T04:53:20;4.03;;;3.50;;
6203;SDS011;3135;42.602;23.468;2022-07-12T04:55:46;6.17;;;3.40;;
6203;SDS011;3135;42.602;23.468;2022-07-12T04:58:11;3.70;;;3.33;;
6203;SDS011;3135;42.602;23.468;2022-07-12T05:00:37;5.20;;;3.30;;
6203;SDS011;3135;42.602;23.468;2022-07-12T05:03:02;5.53;;;3.10;;
6203;SDS011;3135;42.602;23.468;2022-07-12T05:05:27;3.57;;;3.20;;
6203;SDS011;3135;42.602;23.468;2022-07-12T05:07:53;3.37;;;2.83;;
6203;SDS011;3135;42.602;23.468;2022-07-12T05:10:18;3.57;;;3.00;;
6203;SDS011;3135;42.602;23.468;2022-07-12T05:12:44;3.27;;;2.93;;
6203;SDS011;3135;42.602;23.468;2022-07-12T05:15:09;3.22;;;2.75;;
6203;SDS011;3135;42.602;23.468;2022-07-12T05:17:35;4.40;;;3.30;;
6203;SDS011;3135;42.602;23.468;2022-07-12T05:20:00;4.73;;;3.00;;
6203;SDS011;3135;42.602;23.468;2022-07-12T05:22:25;4.00;;;3.00;;
6203;SDS011;3135;42.602;23.468;2022-07-12T05:24:51;5.00;;;3.20;;
6203;SDS011;3135;42.602;23.468;2022-07-12T05:27:16;26.48;;;4.57;;
6203;SDS011;3135;42.602;23.468;2022-07-12T05:29:42;6.32;;;3.10;;
6203;SDS011;3135;42.602;23.468;2022-07-12T05:32:07;6.70;;;3.10;;
6203;SDS011;3135;42.602;23.468;2022-07-12T05:34:33;4.23;;;3.00;;
6203;SDS011;3135;42.602;23.468;2022-07-12T05:36:58;8.57;;;3.53;;
6203;SDS011;3135;42.602;23.468;2022-07-12T05:39:24;3.67;;;3.07;;
6203;SDS011;3135;42.602;23.468;2022-07-12T05:41:49;3.67;;;3.13;;
6203;SDS011;3135;42.602;23.468;2022-07-12T05:44:15;5.97;;;3.10;;
6203;SDS011;3135;42.602;23.468;2022-07-12T05:46:42;4.00;;;2.60;;
6203;SDS011;3135;42.602;23.468;2022-07-12T05:49:08;4.85;;;3.05;;
6203;SDS011;3135;42.602;23.468;2022-07-12T05:51:33;6.97;;;3.00;;
6203;SDS011;3135;42.602;23.468;2022-07-12T05:54:17;5.47;;;3.20;;
6203;SDS011;3135;42.602;23.468;2022-07-12T05:56:43;5.20;;;3.30;;
6203;SDS011;3135;42.602;23.468;2022-07-12T05:59:08;4.73;;;3.20;;
6203;SDS011;3135;42.602;23.468;2022-07-12T06:01:34;3.50;;;2.90;;
6203;SDS011;3135;42.602;23.468;2022-07-12T06:03:59;5.67;;;2.97;;
6203;SDS011;3135;42.602;23.468;2022-07-12T06:06:25;29.43;;;5.03;;
6203;SDS011;3135;42.602;23.468;2022-07-12T06:08:50;4.07;;;3.00;;
6203;SDS011;3135;42.602;23.468;2022-07-12T06:11:16;4.68;;;2.80;;
6203;SDS011;3135;42.602;23.468;2022-07-12T06:13:42;3.03;;;2.67;;
6203;SDS011;3135;42.602;23.468;2022-07-12T06:16:07;3.53;;;2.40;;
6203;SDS011;3135;42.602;23.468;2022-07-12T06:18:35;4.65;;;2.58;;
6203;SDS011;3135;42.602;23.468;2022-07-12T06:21:00;10.27;;;2.50;;
6203;SDS011;3135;42.602;23.468;2022-07-12T06:23:26;5.00;;;2.53;;
6203;SDS011;3135;42.602;23.468;2022-07-12T06:25:51;6.97;;;2.77;;
6203;SDS011;3135;42.602;23.468;2022-07-12T06:28:17;6.33;;;2.80;;
6203;SDS011;3135;42.602;23.468;2022-07-12T06:30:42;6.73;;;2.40;;
6203;SDS011;3135;42.602;23.468;2022-07-12T06:33:08;7.32;;;2.65;;
6203;SDS011;3135;42.602;23.468;2022-07-12T06:35:33;3.27;;;2.17;;
6203;SDS011;3135;42.602;23.468;2022-07-12T06:37:59;5.47;;;1.93;;
6203;SDS011;3135;42.602;23.468;2022-07-12T06:40:25;14.53;;;2.93;;
6203;SDS011;3135;42.602;23.468;2022-07-12T06:42:50;5.03;;;2.30;;
6203;SDS011;3135;42.602;23.468;2022-07-12T06:45:16;3.83;;;2.30;;
6203;SDS011;3135;42.602;23.468;2022-07-12T06:47:41;3.22;;;2.05;;
6203;SDS011;3135;42.602;23.468;2022-07-12T06:50:07;5.65;;;2.50;;
6203;SDS011;3135;42.602;23.468;2022-07-12T06:52:33;5.78;;;2.60;;
6203;SDS011;3135;42.602;23.468;2022-07-12T06:54:59;4.60;;;2.10;;
6203;SDS011;3135;42.602;23.468;2022-07-12T06:57:25;5.75;;;2.50;;
6203;SDS011;3135;42.602;23.468;2022-07-12T06:59:55;8.98;;;2.40;;
6203;SDS011;3135;42.602;23.468;2022-07-12T07:02:21;3.70;;;2.33;;
6203;SDS011;3135;42.602;23.468;2022-07-12T07:04:47;5.63;;;2.60;;
6203;SDS011;3135;42.602;23.468;2022-07-12T07:07:12;4.97;;;2.63;;
6203;SDS011;3135;42.602;23.468;2022-07-12T07:09:38;3.63;;;2.47;;
6203;SDS011;3135;42.602;23.468;2022-07-12T07:12:03;3.58;;;2.05;;
6203;SDS011;3135;42.602;23.468;2022-07-12T07:14:29;5.70;;;2.13;;
6203;SDS011;3135;42.602;23.468;2022-07-12T07:16:55;3.30;;;2.00;;
6203;SDS011;3135;42.602;23.468;2022-07-12T07:19:20;7.55;;;2.10;;
6203;SDS011;3135;42.602;23.468;2022-07-12T07:21:48;2.85;;;1.92;;
6203;SDS011;3135;42.602;23.468;2022-07-12T07:24:13;2.07;;;1.87;;
6203;SDS011;3135;42.602;23.468;2022-07-12T07:26:39;4.17;;;1.90;;
6203;SDS011;3135;42.602;23.468;2022-07-12T07:29:04;8.50;;;2.35;;
6203;SDS011;3135;42.602;23.468;2022-07-12T07:31:59;27.43;;;3.63;;
6203;SDS011;3135;42.602;23.468;2022-07-12T07:34:24;3.80;;;1.67;;
6203;SDS011;3135;42.602;23.468;2022-07-12T07:36:50;3.40;;;1.70;;
6203;SDS011;3135;42.602;23.468;2022-07-12T07:39:16;3.05;;;1.60;;
6203;SDS011;3135;42.602;23.468;2022-07-12T07:41:42;7.93;;;1.90;;
6203;SDS011;3135;42.602;23.468;2022-07-12T07:44:07;3.38;;;2.10;;
6203;SDS011;3135;42.602;23.468;2022-07-12T07:46:33;3.92;;;1.80;;
6203;SDS011;3135;42.602;23.468;2022-07-12T07:48:58;4.50;;;1.90;;
6203;SDS011;3135;42.602;23.468;2022-07-12T07:51:24;3.90;;;1.63;;
6203;SDS011;3135;42.602;23.468;2022-07-12T07:53:49;2.30;;;1.70;;
6203;SDS011;3135;42.602;23.468;2022-07-12T07:56:14;3.13;;;1.80;;
6203;SDS011;3135;42.602;23.468;2022-07-12T07:58:40;1.90;;;1.20;;
6203;SDS011;3135;42.602;23.468;2022-07-12T08:01:05;2.70;;;1.50;;
6203;SDS011;3135;42.602;23.468;2022-07-12T08:03:31;3.67;;;1.42;;
6203;SDS011;3135;42.602;23.468;2022-07-12T08:05:56;2.20;;;1.37;;
6203;SDS011;3135;42.602;23.468;2022-07-12T08:08:23;2.30;;;1.20;;
6203;SDS011;3135;42.602;23.468;2022-07-12T08:10:50;2.38;;;1.20;;
6203;SDS011;3135;42.602;23.468;2022-07-12T08:13:15;3.90;;;1.05;;
6203;SDS011;3135;42.602;23.468;2022-07-12T08:15:41;5.13;;;1.30;;
6203;SDS011;3135;42.602;23.468;2022-07-12T08:18:07;1.70;;;0.87;;
6203;SDS011;3135;42.602;23.468;2022-07-12T08:20:32;4.20;;;1.00;;
6203;SDS011;3135;42.602;23.468;2022-07-12T08:22:58;2.80;;;1.00;;
6203;SDS011;3135;42.602;23.468;2022-07-12T08:25:24;1.70;;;1.00;;
6203;SDS011;3135;42.602;23.468;2022-07-12T08:27:50;1.80;;;1.00;;
6203;SDS011;3135;42.602;23.468;2022-07-12T08:30:16;6.38;;;1.00;;
6203;SDS011;3135;42.602;23.468;2022-07-12T08:32:45;1.40;;;0.70;;
6203;SDS011;3135;42.602;23.468;2022-07-12T08:35:11;3.13;;;0.77;;
6203;SDS011;3135;42.602;23.468;2022-07-12T08:37:37;1.10;;;0.82;;
6203;SDS011;3135;42.602;23.468;2022-07-12T08:40:04;1.52;;;0.90;;
6203;SDS011;3135;42.602;23.468;2022-07-12T08:42:30;0.90;;;0.90;;
6203;SDS011;3135;42.602;23.468;2022-07-12T08:44:56;1.60;;;0.90;;
6203;SDS011;3135;42.602;23.468;2022-07-12T08:47:22;4.70;;;1.00;;
6203;SDS011;3135;42.602;23.468;2022-07-12T08:52:39;2.63;;;1.10;;
6203;SDS011;3135;42.602;23.468;2022-07-12T08:55:16;1.40;;;0.82;;
6203;SDS011;3135;42.602;23.468;2022-07-12T08:58:04;2.17;;;0.93;;
6203;SDS011;3135;42.602;23.468;2022-07-12T09:00:39;2.35;;;1.00;;
6203;SDS011;3135;42.602;23.468;2022-07-12T09:03:04;2.77;;;0.90;;
6203;SDS011;3135;42.602;23.468;2022-07-12T09:05:32;1.40;;;0.80;;
6203;SDS011;3135;42.602;23.468;2022-07-12T09:08:06;5.00;;;0.93;;
6203;SDS011;3135;42.602;23.468;2022-07-12T09:10:36;0.73;;;0.73;;
6203;SDS011;3135;42.602;23.468;2022-07-12T09:13:16;2.13;;;0.80;;
6203;SDS011;3135;42.602;23.468;2022-07-12T09:15:42;2.30;;;0.80;;
6203;SDS011;3135;42.602;23.468;2022-07-12T09:18:07;3.85;;;1.00;;
6203;SDS011;3135;42.602;23.468;2022-07-12T09:20:41;0.88;;;0.82;;
6203;SDS011;3135;42.602;23.468;2022-07-12T09:23:15;2.28;;;0.82;;
6203;SDS011;3135;42.602;23.468;2022-07-12T09:25:43;1.17;;;0.80;;
6203;SDS011;3135;42.602;23.468;2022-07-12T09:28:10;2.90;;;0.90;;
6203;SDS011;3135;42.602;23.468;2022-07-12T09:30:37;2.67;;;0.70;;
6203;SDS011;3135;42.602;23.468;2022-07-12T09:33:13;2.92;;;0.88;;
6203;SDS011;3135;42.602;23.468;2022-07-12T09:36:03;2.30;;;0.80;;
6203;SDS011;3135;42.602;23.468;2022-07-12T09:41:02;2.30;;;0.90;;
6203;SDS011;3135;42.602;23.468;2022-07-12T09:43:29;1.10;;;0.80;;
6203;SDS011;3135;42.602;23.468;2022-07-12T09:45:55;2.83;;;0.90;;
6203;SDS011;3135;42.602;23.468;2022-07-12T09:48:21;2.00;;;0.80;;
6203;SDS011;3135;42.602;23.468;2022-07-12T09:50:48;3.43;;;1.00;;
6203;SDS011;3135;42.602;23.468;2022-07-12T09:54:00;0.70;;;0.70;;
6203;SDS011;3135;42.602;23.468;2022-07-12T09:56:07;2.23;;;0.77;;
6203;SDS011;3135;42.602;23.468;2022-07-12T09:58:37;1.93;;;0.60;;
6203;SDS011;3135;42.602;23.468;2022-07-12T10:01:24;0.70;;;0.70;;
6203;SDS011;3135;42.602;23.468;2022-07-12T10:03:50;1.60;;;0.83;;
6203;SDS011;3135;42.602;23.468;2022-07-12T10:08:52;0.88;;;0.60;;
6203;SDS011;3135;42.602;23.468;2022-07-12T10:11:19;2.05;;;0.65;;
6203;SDS011;3135;42.602;23.468;2022-07-12T10:13:46;1.10;;;0.67;;
6203;SDS011;3135;42.602;23.468;2022-07-12T10:16:13;1.03;;;0.50;;
6203;SDS011;3135;42.602;23.468;2022-07-12T10:18:41;1.15;;;0.70;;
6203;SDS011;3135;42.602;23.468;2022-07-12T10:21:19;1.05;;;0.60;;
6203;SDS011;3135;42.602;23.468;2022-07-12T10:23:47;1.35;;;0.70;;
6203;SDS011;3135;42.602;23.468;2022-07-12T10:31:30;0.90;;;0.60;;
6203;SDS011;3135;42.602;23.468;2022-07-12T10:34:06;1.30;;;0.60;;
6203;SDS011;3135;42.602;23.468;2022-07-12T10:39:20;4.90;;;0.90;;
6203;SDS011;3135;42.602;23.468;2022-07-12T10:44:33;2.35;;;0.60;;
6203;SDS011;3135;42.602;23.468;2022-07-12T10:47:01;3.65;;;0.77;;
6203;SDS011;3135;42.602;23.468;2022-07-12T10:49:28;2.53;;;0.55;;
6203;SDS011;3135;42.602;23.468;2022-07-12T10:57:43;0.60;;;0.60;;
6203;SDS011;3135;42.602;23.468;2022-07-12T11:00:11;1.08;;;0.50;;
6203;SDS011;3135;42.602;23.468;2022-07-12T11:02:37;0.50;;;0.50;;
6203;SDS011;3135;42.602;23.468;2022-07-12T11:05:03;0.77;;;0.50;;
6203;SDS011;3135;42.602;23.468;2022-07-12T11:07:29;0.77;;;0.52;;
6203;SDS011;3135;42.602;23.468;2022-07-12T11:09:55;2.35;;;0.50;;
6203;SDS011;3135;42.602;23.468;2022-07-12T11:12:28;1.30;;;0.50;;
6203;SDS011;3135;42.602;23.468;2022-07-12T11:14:54;3.50;;;0.75;;
6203;SDS011;3135;42.602;23.468;2022-07-12T11:17:24;0.63;;;0.40;;
6203;SDS011;3135;42.602;23.468;2022-07-12T11:22:31;0.55;;;0.45;;
6203;SDS011;3135;42.602;23.468;2022-07-12T11:24:57;2.38;;;0.65;;
6203;SDS011;3135;42.602;23.468;2022-07-12T11:27:25;2.80;;;0.60;;
6203;SDS011;3135;42.602;23.468;2022-07-12T11:29:58;0.97;;;0.53;;
6203;SDS011;3135;42.602;23.468;2022-07-12T11:32:42;1.08;;;0.60;;
6203;SDS011;3135;42.602;23.468;2022-07-12T11:35:19;0.60;;;0.60;;
6203;SDS011;3135;42.602;23.468;2022-07-12T11:37:52;1.70;;;0.50;;
6203;SDS011;3135;42.602;23.468;2022-07-12T11:40:26;0.73;;;0.60;;
6203;SDS011;3135;42.602;23.468;2022-07-12T11:42:57;3.87;;;0.70;;
6203;SDS011;3135;42.602;23.468;2022-07-12T11:45:27;1.35;;;0.60;;
6203;SDS011;3135;42.602;23.468;2022-07-12T11:47:54;1.20;;;0.77;;
6203;SDS011;3135;42.602;23.468;2022-07-12T11:50:22;1.60;;;0.60;;
6203;SDS011;3135;42.602;23.468;2022-07-12T11:52:48;0.77;;;0.70;;
6203;SDS011;3135;42.602;23.468;2022-07-12T11:55:13;1.50;;;0.60;;
6203;SDS011;3135;42.602;23.468;2022-07-12T11:57:39;0.60;;;0.60;;
6203;SDS011;3135;42.602;23.468;2022-07-12T12:00:17;1.10;;;0.70;;
6203;SDS011;3135;42.602;23.468;2022-07-12T12:02:45;1.95;;;0.63;;
6203;SDS011;3135;42.602;23.468;2022-07-12T12:05:10;0.60;;;0.60;;
6203;SDS011;3135;42.602;23.468;2022-07-12T12:07:37;2.30;;;0.70;;
6203;SDS011;3135;42.602;23.468;2022-07-12T12:12:42;0.65;;;0.60;;
6203;SDS011;3135;42.602;23.468;2022-07-12T12:15:18;2.05;;;0.70;;
6203;SDS011;3135;42.602;23.468;2022-07-12T12:17:46;0.60;;;0.60;;
6203;SDS011;3135;42.602;23.468;2022-07-12T12:20:28;0.65;;;0.57;;
6203;SDS011;3135;42.602;23.468;2022-07-12T12:22:55;0.65;;;0.65;;
6203;SDS011;3135;42.602;23.468;2022-07-12T12:25:22;2.70;;;0.80;;
6203;SDS011;3135;42.602;23.468;2022-07-12T12:27:49;1.58;;;0.90;;
6203;SDS011;3135;42.602;23.468;2022-07-12T12:30:20;1.20;;;0.60;;
6203;SDS011;3135;42.602;23.468;2022-07-12T12:32:52;1.77;;;0.77;;
6203;SDS011;3135;42.602;23.468;2022-07-12T12:35:38;1.60;;;0.80;;
6203;SDS011;3135;42.602;23.468;2022-07-12T12:38:10;0.80;;;0.80;;
6203;SDS011;3135;42.602;23.468;2022-07-12T12:40:37;1.23;;;0.77;;
6203;SDS011;3135;42.602;23.468;2022-07-12T12:43:06;3.92;;;1.13;;
6203;SDS011;3135;42.602;23.468;2022-07-12T12:45:58;1.80;;;0.63;;
6203;SDS011;3135;42.602;23.468;2022-07-12T12:48:23;0.90;;;0.68;;
6203;SDS011;3135;42.602;23.468;2022-07-12T12:50:51;2.38;;;0.73;;
6203;SDS011;3135;42.602;23.468;2022-07-12T12:55:49;0.70;;;0.60;;
6203;SDS011;3135;42.602;23.468;2022-07-12T12:58:19;0.70;;;0.70;;
6203;SDS011;3135;42.602;23.468;2022-07-12T13:00:47;0.90;;;0.70;;
6203;SDS011;3135;42.602;23.468;2022-07-12T13:03:15;1.00;;;0.70;;
6203;SDS011;3135;42.602;23.468;2022-07-12T13:05:44;2.00;;;0.60;;
6203;SDS011;3135;42.602;23.468;2022-07-12T13:08:11;0.60;;;0.60;;
6203;SDS011;3135;42.602;23.468;2022-07-12T13:10:38;2.33;;;0.70;;
6203;SDS011;3135;42.602;23.468;2022-07-12T13:13:04;0.60;;;0.60;;
6203;SDS011;3135;42.602;23.468;2022-07-12T13:15:31;1.50;;;0.55;;
6203;SDS011;3135;42.602;23.468;2022-07-12T13:17:57;2.10;;;0.80;;
6203;SDS011;3135;42.602;23.468;2022-07-12T13:20:23;2.20;;;0.70;;
6203;SDS011;3135;42.602;23.468;2022-07-12T13:22:50;0.57;;;0.57;;
6203;SDS011;3135;42.602;23.468;2022-07-12T13:25:16;1.30;;;0.50;;
6203;SDS011;3135;42.602;23.468;2022-07-12T13:27:42;0.85;;;0.60;;
6203;SDS011;3135;42.602;23.468;2022-07-12T13:30:09;4.97;;;0.70;;
6203;SDS011;3135;42.602;23.468;2022-07-12T13:32:36;2.10;;;0.80;;
6203;SDS011;3135;42.602;23.468;2022-07-12T13:35:03;1.35;;;0.73;;
6203;SDS011;3135;42.602;23.468;2022-07-12T13:37:30;1.30;;;0.77;;
6203;SDS011;3135;42.602;23.468;2022-07-12T13:39:56;0.90;;;0.70;;
6203;SDS011;3135;42.602;23.468;2022-07-12T13:45:18;0.67;;;0.60;;
6203;SDS011;3135;42.602;23.468;2022-07-12T13:47:45;3.17;;;0.90;;
6203;SDS011;3135;42.602;23.468;2022-07-12T13:50:12;2.60;;;0.80;;
6203;SDS011;3135;42.602;23.468;2022-07-12T13:52:39;0.80;;;0.60;;
6203;SDS011;3135;42.602;23.468;2022-07-12T13:55:06;0.70;;;0.60;;
6203;SDS011;3135;42.602;23.468;2022-07-12T13:57:33;0.90;;;0.70;;
6203;SDS011;3135;42.602;23.468;2022-07-12T14:00:06;1.50;;;0.70;;
6203;SDS011;3135;42.602;23.468;2022-07-12T14:02:47;1.73;;;0.75;;
6203;SDS011;3135;42.602;23.468;2022-07-12T14:05:13;1.00;;;0.60;;
6203;SDS011;3135;42.602;23.468;2022-07-12T14:07:41;1.35;;;0.73;;
6203;SDS011;3135;42.602;23.468;2022-07-12T14:10:07;0.95;;;0.70;;
6203;SDS011;3135;42.602;23.468;2022-07-12T14:12:35;0.60;;;0.60;;
6203;SDS011;3135;42.602;23.468;2022-07-12T14:15:01;3.30;;;0.90;;
6203;SDS011;3135;42.602;23.468;2022-07-12T14:18:01;0.52;;;0.52;;
6203;SDS011;3135;42.602;23.468;2022-07-12T14:20:29;1.30;;;0.70;;
6203;SDS011;3135;42.602;23.468;2022-07-12T14:22:55;8.17;;;1.00;;
6203;SDS011;3135;42.602;23.468;2022-07-12T14:25:21;0.80;;;0.70;;
6203;SDS011;3135;42.602;23.468;2022-07-12T14:27:46;1.30;;;0.77;;
6203;SDS011;3135;42.602;23.468;2022-07-12T14:30:12;0.75;;;0.60;;
6203;SDS011;3135;42.602;23.468;2022-07-12T14:32:39;0.70;;;0.70;;
6203;SDS011;3135;42.602;23.468;2022-07-12T14:35:05;1.10;;;0.70;;
6203;SDS011;3135;42.602;23.468;2022-07-12T14:37:33;2.40;;;0.70;;
6203;SDS011;3135;42.602;23.468;2022-07-12T14:39:59;0.80;;;0.68;;
6203;SDS011;3135;42.602;23.468;2022-07-12T14:42:25;0.70;;;0.70;;
6203;SDS011;3135;42.602;23.468;2022-07-12T14:44:50;1.80;;;0.70;;
6203;SDS011;3135;42.602;23.468;2022-07-12T14:47:16;1.60;;;0.70;;
6203;SDS011;3135;42.602;23.468;2022-07-12T14:49:41;0.83;;;0.70;;
6203;SDS011;3135;42.602;23.468;2022-07-12T14:52:07;0.80;;;0.80;;
6203;SDS011;3135;42.602;23.468;2022-07-12T14:54:32;2.40;;;0.70;;
6203;SDS011;3135;42.602;23.468;2022-07-12T14:56:59;0.70;;;0.70;;
6203;SDS011;3135;42.602;23.468;2022-07-12T14:59:25;4.70;;;0.80;;
6203;SDS011;3135;42.602;23.468;2022-07-12T15:01:51;2.30;;;0.77;;
6203;SDS011;3135;42.602;23.468;2022-07-12T15:04:17;0.80;;;0.80;;
6203;SDS011;3135;42.602;23.468;2022-07-12T15:06:42;1.10;;;0.60;;
6203;SDS011;3135;42.602;23.468;2022-07-12T15:09:08;1.70;;;0.60;;
6203;SDS011;3135;42.602;23.468;2022-07-12T15:11:33;1.20;;;0.90;;
6203;SDS011;3135;42.602;23.468;2022-07-12T15:13:59;3.97;;;1.13;;
6203;SDS011;3135;42.602;23.468;2022-07-12T15:16:24;0.67;;;0.60;;
6203;SDS011;3135;42.602;23.468;2022-07-12T15:18:50;0.77;;;0.77;;
6203;SDS011;3135;42.602;23.468;2022-07-12T15:21:15;1.30;;;0.67;;
6203;SDS011;3135;42.602;23.468;2022-07-12T15:23:41;1.10;;;0.80;;
6203;SDS011;3135;42.602;23.468;2022-07-12T15:26:07;1.15;;;0.75;;
6203;SDS011;3135;42.602;23.468;2022-07-12T15:28:32;0.52;;;0.52;;
6203;SDS011;3135;42.602;23.468;2022-07-12T15:30:58;2.55;;;0.80;;
6203;SDS011;3135;42.602;23.468;2022-07-12T15:33:25;1.60;;;0.87;;
6203;SDS011;3135;42.602;23.468;2022-07-12T15:35:50;2.50;;;0.80;;